sensor_id;sensor_type;location;lat;lon;timestamp;temperature;humidity
59146;DHT22;44928;53.074;6.646;2022-08-04T00:02:01;20.50;99.90
59146;DHT22;44928;53.074;6.646;2022-08-04T00:04:43;20.50;99.90
59146;DHT22;44928;53.074;6.646;2022-08-04T00:07:32;20.50;99.90
59146;DHT22;44928;53.074;6.646;2022-08-04T00:10:05;20.50;99.90
59146;DHT22;44928;53.074;6.646;2022-08-04T00:12:33;20.40;99.90
59146;DHT22;44928;53.074;6.646;2022-08-04T00:15:04;20.40;99.90
59146;DHT22;44928;53.074;6.646;2022-08-04T00:17:59;20.40;99.90
59146;DHT22;44928;53.074;6.646;2022-08-04T00:20:30;20.40;99.90
59146;DHT22;44928;53.074;6.646;2022-08-04T00:22:56;20.30;99.90
59146;DHT22;44928;53.074;6.646;2022-08-04T00:25:24;20.30;99.90
59146;DHT22;44928;53.074;6.646;2022-08-04T00:27:50;20.30;99.90
59146;DHT22;44928;53.074;6.646;2022-08-04T00:30:16;20.20;99.90
59146;DHT22;44928;53.074;6.646;2022-08-04T00:32:42;20.30;99.90
59146;DHT22;44928;53.074;6.646;2022-08-04T00:35:09;20.30;99.90
59146;DHT22;44928;53.074;6.646;2022-08-04T00:37:37;20.20;99.90
59146;DHT22;44928;53.074;6.646;2022-08-04T00:54:25;20.10;99.90
59146;DHT22;44928;53.074;6.646;2022-08-04T01:00:06;20.00;99.90
59146;DHT22;44928;53.074;6.646;2022-08-04T01:16:30;19.90;99.90
59146;DHT22;44928;53.074;6.646;2022-08-04T01:19:18;19.90;99.90
59146;DHT22;44928;53.074;6.646;2022-08-04T01:30:00;19.80;99.90
59146;DHT22;44928;53.074;6.646;2022-08-04T01:32:46;19.80;99.90
59146;DHT22;44928;53.074;6.646;2022-08-04T01:35:21;19.80;99.90
59146;DHT22;44928;53.074;6.646;2022-08-04T01:40:43;19.70;99.90
59146;DHT22;44928;53.074;6.646;2022-08-04T01:43:10;19.70;99.90
59146;DHT22;44928;53.074;6.646;2022-08-04T01:45:37;19.70;99.90
59146;DHT22;44928;53.074;6.646;2022-08-04T01:48:06;19.70;99.90
59146;DHT22;44928;53.074;6.646;2022-08-04T01:50:35;19.70;99.90
59146;DHT22;44928;53.074;6.646;2022-08-04T01:53:02;19.60;99.90
59146;DHT22;44928;53.074;6.646;2022-08-04T01:55:29;19.60;99.90
59146;DHT22;44928;53.074;6.646;2022-08-04T01:57:58;19.60;99.90
59146;DHT22;44928;53.074;6.646;2022-08-04T02:00:27;19.60;99.90
59146;DHT22;44928;53.074;6.646;2022-08-04T02:02:54;19.60;99.90
59146;DHT22;44928;53.074;6.646;2022-08-04T02:05:25;19.60;99.90
59146;DHT22;44928;53.074;6.646;2022-08-04T02:13:31;19.40;99.90
59146;DHT22;44928;53.074;6.646;2022-08-04T02:18:48;19.30;99.90
59146;DHT22;44928;53.074;6.646;2022-08-04T02:21:24;19.30;99.90
59146;DHT22;44928;53.074;6.646;2022-08-04T02:23:55;19.20;99.90
59146;DHT22;44928;53.074;6.646;2022-08-04T02:26:27;19.10;99.90
59146;DHT22;44928;53.074;6.646;2022-08-04T02:31:45;19.10;99.90
59146;DHT22;44928;53.074;6.646;2022-08-04T02:34:28;19.10;99.90
59146;DHT22;44928;53.074;6.646;2022-08-04T02:36:55;19.00;99.90
59146;DHT22;44928;53.074;6.646;2022-08-04T02:39:25;19.10;99.90
59146;DHT22;44928;53.074;6.646;2022-08-04T02:41:55;19.00;99.90
59146;DHT22;44928;53.074;6.646;2022-08-04T02:44:25;19.00;99.90
59146;DHT22;44928;53.074;6.646;2022-08-04T02:46:53;19.00;99.90
59146;DHT22;44928;53.074;6.646;2022-08-04T02:49:21;18.90;99.90
59146;DHT22;44928;53.074;6.646;2022-08-04T02:51:56;18.90;99.90
59146;DHT22;44928;53.074;6.646;2022-08-04T02:54:33;18.90;99.90
59146;DHT22;44928;53.074;6.646;2022-08-04T02:57:00;18.80;99.90
59146;DHT22;44928;53.074;6.646;2022-08-04T02:59:27;18.80;99.90
59146;DHT22;44928;53.074;6.646;2022-08-04T03:01:55;18.80;99.90
59146;DHT22;44928;53.074;6.646;2022-08-04T03:05:10;18.80;99.90
59146;DHT22;44928;53.074;6.646;2022-08-04T03:13:12;18.80;99.90
59146;DHT22;44928;53.074;6.646;2022-08-04T03:26:44;18.80;99.90
59146;DHT22;44928;53.074;6.646;2022-08-04T03:38:43;18.90;99.90
59146;DHT22;44928;53.074;6.646;2022-08-04T03:44:22;18.80;99.90
59146;DHT22;44928;53.074;6.646;2022-08-04T03:55:50;18.60;99.90
59146;DHT22;44928;53.074;6.646;2022-08-04T04:18:13;18.50;99.90
59146;DHT22;44928;53.074;6.646;2022-08-04T04:20:49;18.50;99.90
59146;DHT22;44928;53.074;6.646;2022-08-04T04:26:06;18.50;99.90
59146;DHT22;44928;53.074;6.646;2022-08-04T04:39:41;18.50;99.90
59146;DHT22;44928;53.074;6.646;2022-08-04T04:42:34;18.50;99.90
59146;DHT22;44928;53.074;6.646;2022-08-04T04:55:50;18.50;99.90
59146;DHT22;44928;53.074;6.646;2022-08-04T04:58:17;18.50;99.90
59146;DHT22;44928;53.074;6.646;2022-08-04T05:01:15;18.50;99.90
59146;DHT22;44928;53.074;6.646;2022-08-04T05:04:48;18.50;99.90
59146;DHT22;44928;53.074;6.646;2022-08-04T05:10:06;18.60;99.90
59146;DHT22;44928;53.074;6.646;2022-08-04T05:15:28;18.70;99.90
59146;DHT22;44928;53.074;6.646;2022-08-04T05:17:56;18.70;99.90
59146;DHT22;44928;53.074;6.646;2022-08-04T05:23:02;18.80;99.90
59146;DHT22;44928;53.074;6.646;2022-08-04T05:25:33;18.80;99.90
59146;DHT22;44928;53.074;6.646;2022-08-04T05:30:33;18.90;99.90
59146;DHT22;44928;53.074;6.646;2022-08-04T05:33:05;18.90;99.90
59146;DHT22;44928;53.074;6.646;2022-08-04T05:35:44;19.00;99.90
59146;DHT22;44928;53.074;6.646;2022-08-04T05:38:17;19.10;99.90
59146;DHT22;44928;53.074;6.646;2022-08-04T05:40:45;19.10;99.90
59146;DHT22;44928;53.074;6.646;2022-08-04T05:43:11;19.20;99.90
59146;DHT22;44928;53.074;6.646;2022-08-04T05:45:39;19.20;99.90
59146;DHT22;44928;53.074;6.646;2022-08-04T05:48:07;19.30;99.90
59146;DHT22;44928;53.074;6.646;2022-08-04T05:50:34;19.40;99.90
59146;DHT22;44928;53.074;6.646;2022-08-04T05:53:00;19.40;99.90
59146;DHT22;44928;53.074;6.646;2022-08-04T05:55:28;19.50;99.90
59146;DHT22;44928;53.074;6.646;2022-08-04T05:57:56;19.50;99.90
59146;DHT22;44928;53.074;6.646;2022-08-04T06:00:24;19.50;99.90
59146;DHT22;44928;53.074;6.646;2022-08-04T06:02:53;19.60;99.90
59146;DHT22;44928;53.074;6.646;2022-08-04T06:05:18;19.70;99.90
59146;DHT22;44928;53.074;6.646;2022-08-04T06:07:45;19.70;99.90
59146;DHT22;44928;53.074;6.646;2022-08-04T06:10:12;19.80;99.90
59146;DHT22;44928;53.074;6.646;2022-08-04T06:12:44;19.90;99.90
59146;DHT22;44928;53.074;6.646;2022-08-04T06:15:14;19.90;99.90
59146;DHT22;44928;53.074;6.646;2022-08-04T06:17:45;20.00;99.90
59146;DHT22;44928;53.074;6.646;2022-08-04T06:20:13;20.10;99.90
59146;DHT22;44928;53.074;6.646;2022-08-04T06:22:41;20.10;99.90
59146;DHT22;44928;53.074;6.646;2022-08-04T06:25:09;20.20;99.90
59146;DHT22;44928;53.074;6.646;2022-08-04T06:27:37;20.30;99.90
59146;DHT22;44928;53.074;6.646;2022-08-04T06:30:03;20.40;99.90
59146;DHT22;44928;53.074;6.646;2022-08-04T06:32:35;20.50;99.90
59146;DHT22;44928;53.074;6.646;2022-08-04T06:35:05;20.50;99.90
59146;DHT22;44928;53.074;6.646;2022-08-04T06:37:33;20.60;99.90
59146;DHT22;44928;53.074;6.646;2022-08-04T06:40:01;20.70;99.90
59146;DHT22;44928;53.074;6.646;2022-08-04T06:42:28;20.80;99.90
59146;DHT22;44928;53.074;6.646;2022-08-04T06:44:57;21.00;99.90
59146;DHT22;44928;53.074;6.646;2022-08-04T06:47:23;21.00;99.90
59146;DHT22;44928;53.074;6.646;2022-08-04T06:49:51;21.10;99.90
59146;DHT22;44928;53.074;6.646;2022-08-04T06:52:19;21.20;99.90
59146;DHT22;44928;53.074;6.646;2022-08-04T06:54:49;21.30;99.90
59146;DHT22;44928;53.074;6.646;2022-08-04T06:57:19;21.40;99.90
59146;DHT22;44928;53.074;6.646;2022-08-04T06:59:48;21.40;99.90
59146;DHT22;44928;53.074;6.646;2022-08-04T07:02:19;21.50;99.90
59146;DHT22;44928;53.074;6.646;2022-08-04T07:04:46;21.50;99.90
59146;DHT22;44928;53.074;6.646;2022-08-04T07:07:13;21.60;99.90
59146;DHT22;44928;53.074;6.646;2022-08-04T07:09:40;21.70;99.90
59146;DHT22;44928;53.074;6.646;2022-08-04T07:12:07;21.80;99.90
59146;DHT22;44928;53.074;6.646;2022-08-04T07:14:34;21.80;99.90
59146;DHT22;44928;53.074;6.646;2022-08-04T07:17:05;21.90;99.90
59146;DHT22;44928;53.074;6.646;2022-08-04T07:19:33;22.00;99.90
59146;DHT22;44928;53.074;6.646;2022-08-04T07:21:59;22.10;99.90
59146;DHT22;44928;53.074;6.646;2022-08-04T07:24:30;22.10;99.90
59146;DHT22;44928;53.074;6.646;2022-08-04T07:26:56;22.20;99.90
59146;DHT22;44928;53.074;6.646;2022-08-04T07:29:22;22.30;99.90
59146;DHT22;44928;53.074;6.646;2022-08-04T07:31:49;22.40;99.90
59146;DHT22;44928;53.074;6.646;2022-08-04T07:34:15;22.50;99.90
59146;DHT22;44928;53.074;6.646;2022-08-04T07:36:42;22.50;99.90
59146;DHT22;44928;53.074;6.646;2022-08-04T07:39:08;22.70;99.90
59146;DHT22;44928;53.074;6.646;2022-08-04T07:41:34;22.70;99.90
59146;DHT22;44928;53.074;6.646;2022-08-04T07:44:02;22.80;99.90
59146;DHT22;44928;53.074;6.646;2022-08-04T07:46:28;22.90;99.90
59146;DHT22;44928;53.074;6.646;2022-08-04T07:48:54;23.00;99.90
59146;DHT22;44928;53.074;6.646;2022-08-04T07:51:20;23.10;99.90
59146;DHT22;44928;53.074;6.646;2022-08-04T07:53:47;23.30;99.90
59146;DHT22;44928;53.074;6.646;2022-08-04T07:56:14;23.40;99.90
59146;DHT22;44928;53.074;6.646;2022-08-04T07:58:41;23.50;99.90
59146;DHT22;44928;53.074;6.646;2022-08-04T08:01:08;23.60;99.90
59146;DHT22;44928;53.074;6.646;2022-08-04T08:03:34;23.70;99.90
59146;DHT22;44928;53.074;6.646;2022-08-04T08:06:03;23.80;99.90
59146;DHT22;44928;53.074;6.646;2022-08-04T08:08:28;23.90;99.90
59146;DHT22;44928;53.074;6.646;2022-08-04T08:10:54;24.00;99.90
59146;DHT22;44928;53.074;6.646;2022-08-04T08:13:20;24.00;99.90
59146;DHT22;44928;53.074;6.646;2022-08-04T08:15:47;24.20;99.90
59146;DHT22;44928;53.074;6.646;2022-08-04T08:18:13;24.20;99.90
59146;DHT22;44928;53.074;6.646;2022-08-04T08:20:38;24.30;99.90
59146;DHT22;44928;53.074;6.646;2022-08-04T08:23:07;24.40;99.90
59146;DHT22;44928;53.074;6.646;2022-08-04T08:25:33;24.50;99.90
59146;DHT22;44928;53.074;6.646;2022-08-04T08:28:02;24.60;99.90
59146;DHT22;44928;53.074;6.646;2022-08-04T08:30:28;24.60;99.90
59146;DHT22;44928;53.074;6.646;2022-08-04T08:32:54;24.70;99.90
59146;DHT22;44928;53.074;6.646;2022-08-04T08:35:21;24.80;99.90
59146;DHT22;44928;53.074;6.646;2022-08-04T08:37:55;24.90;99.90
59146;DHT22;44928;53.074;6.646;2022-08-04T08:40:28;25.00;99.90
59146;DHT22;44928;53.074;6.646;2022-08-04T08:46:17;25.20;99.90
59146;DHT22;44928;53.074;6.646;2022-08-04T08:48:57;25.20;99.90
59146;DHT22;44928;53.074;6.646;2022-08-04T08:54:52;25.40;99.90
59146;DHT22;44928;53.074;6.646;2022-08-04T08:57:40;25.50;99.90
59146;DHT22;44928;53.074;6.646;2022-08-04T09:00:13;25.60;99.90
59146;DHT22;44928;53.074;6.646;2022-08-04T09:05:42;25.80;99.90
59146;DHT22;44928;53.074;6.646;2022-08-04T09:11:08;26.10;99.90
59146;DHT22;44928;53.074;6.646;2022-08-04T09:13:49;26.20;99.90
59146;DHT22;44928;53.074;6.646;2022-08-04T09:16:20;26.30;99.90
59146;DHT22;44928;53.074;6.646;2022-08-04T09:19:18;26.30;99.90
59146;DHT22;44928;53.074;6.646;2022-08-04T09:21:57;26.30;99.90
59146;DHT22;44928;53.074;6.646;2022-08-04T09:25:17;26.40;99.90
59146;DHT22;44928;53.074;6.646;2022-08-04T09:27:45;26.50;99.90
59146;DHT22;44928;53.074;6.646;2022-08-04T09:30:17;26.50;99.90
59146;DHT22;44928;53.074;6.646;2022-08-04T09:35:56;26.70;99.90
59146;DHT22;44928;53.074;6.646;2022-08-04T09:38:40;26.70;99.90
59146;DHT22;44928;53.074;6.646;2022-08-04T09:46:44;26.80;99.90
59146;DHT22;44928;53.074;6.646;2022-08-04T09:49:54;26.80;99.90
59146;DHT22;44928;53.074;6.646;2022-08-04T09:52:22;26.90;99.90
59146;DHT22;44928;53.074;6.646;2022-08-04T09:55:18;27.00;99.90
59146;DHT22;44928;53.074;6.646;2022-08-04T09:58:00;27.00;99.90
59146;DHT22;44928;53.074;6.646;2022-08-04T10:00:33;27.10;99.90
59146;DHT22;44928;53.074;6.646;2022-08-04T10:03:00;27.20;99.90
59146;DHT22;44928;53.074;6.646;2022-08-04T10:05:59;27.30;99.90
59146;DHT22;44928;53.074;6.646;2022-08-04T10:11:22;27.20;99.90
59146;DHT22;44928;53.074;6.646;2022-08-04T10:17:14;27.40;99.90
59146;DHT22;44928;53.074;6.646;2022-08-04T10:19:44;27.60;99.90
59146;DHT22;44928;53.074;6.646;2022-08-04T10:27:47;28.10;99.70
59146;DHT22;44928;53.074;6.646;2022-08-04T10:30:18;28.10;99.90
59146;DHT22;44928;53.074;6.646;2022-08-04T10:32:52;28.00;99.60
59146;DHT22;44928;53.074;6.646;2022-08-04T10:35:24;27.90;99.90
59146;DHT22;44928;53.074;6.646;2022-08-04T10:40:38;27.80;99.90
59146;DHT22;44928;53.074;6.646;2022-08-04T10:46:00;27.70;99.90
59146;DHT22;44928;53.074;6.646;2022-08-04T10:48:57;27.70;99.90
59146;DHT22;44928;53.074;6.646;2022-08-04T10:54:14;27.60;99.50
59146;DHT22;44928;53.074;6.646;2022-08-04T10:56:51;27.50;99.70
59146;DHT22;44928;53.074;6.646;2022-08-04T10:59:34;27.50;99.90
59146;DHT22;44928;53.074;6.646;2022-08-04T11:05:16;27.40;99.90
59146;DHT22;44928;53.074;6.646;2022-08-04T11:07:46;27.40;99.90
59146;DHT22;44928;53.074;6.646;2022-08-04T11:10:13;27.50;99.80
59146;DHT22;44928;53.074;6.646;2022-08-04T11:12:41;27.50;98.40
59146;DHT22;44928;53.074;6.646;2022-08-04T11:15:20;27.40;98.70
59146;DHT22;44928;53.074;6.646;2022-08-04T11:17:55;27.50;99.20
